createdAt,value
2023-10-03T00:01:01.902Z,98529.43
2023-10-03T00:03:40.481Z,98534.09
2023-10-03T00:06:08.790Z,98534.10
2023-10-03T00:08:36.641Z,98533.73
2023-10-03T00:11:06.169Z,98532.86
2023-10-03T00:13:34.414Z,98530.45
2023-10-03T00:16:02.280Z,98528.46
2023-10-03T00:18:30.795Z,98528.90
2023-10-03T00:20:58.697Z,98527.18
2023-10-03T00:23:27.993Z,98525.75
2023-10-03T00:25:56.522Z,98527.80
2023-10-03T00:28:24.417Z,98528.70
2023-10-03T00:30:52.776Z,98526.16
2023-10-03T00:33:26.654Z,98524.82
2023-10-03T00:35:54.851Z,98524.00
2023-10-03T00:38:23.935Z,98524.54
2023-10-03T00:40:54.298Z,98522.56
2023-10-03T00:43:23.105Z,98516.38
2023-10-03T00:45:51.223Z,98513.73
2023-10-03T00:48:20.253Z,98513.08
2023-10-03T00:50:49.675Z,98509.14
2023-10-03T00:53:18.258Z,98508.92
2023-10-03T00:55:46.426Z,98508.63
2023-10-03T00:58:14.463Z,98508.28
2023-10-03T01:00:46.708Z,98509.07
2023-10-03T01:03:34.289Z,98503.92
2023-10-03T01:06:10.215Z,98499.36
2023-10-03T01:08:48.890Z,98495.63
2023-10-03T01:11:21.967Z,98491.55
2023-10-03T01:13:55.623Z,98486.27
2023-10-03T01:16:29.650Z,98486.55
2023-10-03T01:19:16.803Z,98489.27
2023-10-03T01:21:51.502Z,98488.14
2023-10-03T01:24:25.542Z,98489.32
2023-10-03T01:26:54.657Z,98489.41
2023-10-03T01:29:23.478Z,98488.20
2023-10-03T01:31:53.123Z,98489.80
2023-10-03T01:34:22.301Z,98488.69
2023-10-03T01:36:50.280Z,98488.95
2023-10-03T01:39:18.289Z,98492.38
2023-10-03T01:41:46.789Z,98490.91
2023-10-03T01:44:17.787Z,98489.33
2023-10-03T01:46:46.408Z,98489.70
2023-10-03T01:49:15.890Z,98488.75
2023-10-03T01:51:44.741Z,98487.98
2023-10-03T01:54:13.460Z,98476.86
2023-10-03T01:56:41.358Z,98477.05
2023-10-03T01:59:09.819Z,98485.16
2023-10-03T02:01:39.206Z,98488.72
2023-10-03T02:04:07.750Z,98488.86
2023-10-03T02:06:36.475Z,98484.33
2023-10-03T02:09:05.452Z,98483.00
2023-10-03T02:11:33.962Z,98483.45
2023-10-03T02:14:04.481Z,98481.87
2023-10-03T02:16:36.159Z,98480.49
2023-10-03T02:19:05.294Z,98478.55
2023-10-03T02:21:33.144Z,98478.19
2023-10-03T02:24:01.654Z,98479.71
2023-10-03T02:26:33.635Z,98477.05
2023-10-03T02:29:03.896Z,98474.78
2023-10-03T02:31:34.911Z,98476.03
2023-10-03T02:34:03.891Z,98474.60
2023-10-03T02:36:32.007Z,98474.74
2023-10-03T02:39:01.811Z,98473.54
2023-10-03T02:41:31.251Z,98472.35
2023-10-03T02:43:59.271Z,98472.08
2023-10-03T02:46:28.377Z,98470.48
2023-10-03T02:48:57.098Z,98467.94
2023-10-03T02:51:25.886Z,98468.56
2023-10-03T02:53:54.158Z,98467.39
2023-10-03T02:56:23.734Z,98466.21
2023-10-03T02:58:51.791Z,98462.48
2023-10-03T03:01:22.614Z,98465.98
2023-10-03T03:03:51.588Z,98462.80
2023-10-03T03:06:20.269Z,98462.45
2023-10-03T03:08:48.161Z,98459.20
2023-10-03T03:11:20.110Z,98456.22
2023-10-03T03:13:48.022Z,98456.49
2023-10-03T03:16:17.005Z,98457.36
2023-10-03T03:18:47.961Z,98461.83
2023-10-03T03:21:17.254Z,98461.25
2023-10-03T03:23:58.025Z,98461.14
2023-10-03T03:26:40.989Z,98464.09
2023-10-03T03:29:22.435Z,98467.32
2023-10-03T03:31:52.763Z,98467.48
2023-10-03T03:34:22.574Z,98469.25
2023-10-03T03:36:56.375Z,98471.36
2023-10-03T03:39:28.028Z,98469.44
2023-10-03T03:41:56.245Z,98472.05
2023-10-03T03:44:26.757Z,98476.23
2023-10-03T03:46:55.280Z,98476.80
2023-10-03T03:49:24.840Z,98476.64
2023-10-03T03:51:54.577Z,98476.24
2023-10-03T03:54:22.501Z,98474.81
2023-10-03T03:56:50.651Z,98472.19
2023-10-03T03:59:18.801Z,98464.40
2023-10-03T04:01:46.853Z,98461.83
2023-10-03T04:04:14.728Z,98466.01
2023-10-03T04:06:44.477Z,98467.98
2023-10-03T04:09:12.933Z,98465.62
2023-10-03T04:11:42.577Z,98463.34
2023-10-03T04:14:11.122Z,98463.73
2023-10-03T04:16:45.642Z,98462.36
2023-10-03T04:19:14.013Z,98459.76
2023-10-03T04:21:43.490Z,98463.02
2023-10-03T04:24:17.318Z,98467.05
2023-10-03T04:26:45.677Z,98466.09
2023-10-03T04:29:16.894Z,98469.81
2023-10-03T04:31:45.823Z,98473.05
2023-10-03T04:34:17.773Z,98475.20
2023-10-03T04:36:46.901Z,98477.27
2023-10-03T04:39:15.081Z,98479.45
2023-10-03T04:41:45.713Z,98480.04
2023-10-03T04:44:18.285Z,98479.66
2023-10-03T04:46:47.436Z,98481.41
2023-10-03T04:49:16.405Z,98480.17
2023-10-03T04:51:48.178Z,98477.30
2023-10-03T04:54:17.572Z,98479.61
2023-10-03T04:56:46.702Z,98481.35
2023-10-03T04:59:14.978Z,98478.52
2023-10-03T05:01:44.539Z,98479.02
2023-10-03T05:04:13.866Z,98477.95
2023-10-03T05:06:44.484Z,98476.66
2023-10-03T05:09:13.432Z,98474.80
2023-10-03T05:11:43.300Z,98473.27
2023-10-03T05:14:13.515Z,98476.53
2023-10-03T05:16:41.672Z,98475.92
2023-10-03T05:19:10.963Z,98478.92
2023-10-03T05:21:39.504Z,98479.45
2023-10-03T05:24:11.253Z,98476.94
2023-10-03T05:26:40.096Z,98472.45
2023-10-03T05:29:08.704Z,98475.27
2023-10-03T05:31:39.071Z,98483.63
2023-10-03T05:34:07.484Z,98480.66
2023-10-03T05:36:35.277Z,98481.60
2023-10-03T05:39:04.513Z,98483.46
2023-10-03T05:41:32.647Z,98487.33
2023-10-03T05:44:00.510Z,98487.86
2023-10-03T05:46:29.744Z,98488.97
2023-10-03T05:48:57.906Z,98489.42
2023-10-03T05:51:25.903Z,98492.73
2023-10-03T05:53:55.375Z,98491.02
2023-10-03T05:56:23.393Z,98491.44
2023-10-03T05:58:51.363Z,98492.35
2023-10-03T06:01:19.313Z,98492.82
2023-10-03T06:03:47.907Z,98491.91
2023-10-03T06:06:15.907Z,98489.58
2023-10-03T06:08:43.804Z,98493.02
2023-10-03T06:11:11.848Z,98492.70
2023-10-03T06:13:43.101Z,98493.09
2023-10-03T06:16:16.097Z,98491.69
2023-10-03T06:18:44.454Z,98488.66
2023-10-03T06:21:12.682Z,98490.00
2023-10-03T06:23:40.667Z,98487.11
2023-10-03T06:26:08.667Z,98488.95
2023-10-03T06:28:36.703Z,98488.88
2023-10-03T06:31:04.643Z,98492.05
2023-10-03T06:33:33.771Z,98495.57
2023-10-03T06:36:07.734Z,98496.46
2023-10-03T06:38:35.909Z,98496.85
2023-10-03T06:41:08.619Z,98499.23
2023-10-03T06:43:36.478Z,98503.10
2023-10-03T06:46:07.200Z,98504.61
2023-10-03T06:48:35.626Z,98507.05
2023-10-03T06:51:06.735Z,98510.90
2023-10-03T06:53:34.774Z,98511.16
2023-10-03T06:56:02.822Z,98508.95
2023-10-03T06:58:30.825Z,98510.30
2023-10-03T07:00:58.740Z,98515.70
2023-10-03T07:03:26.848Z,98514.63
2023-10-03T07:05:55.816Z,98510.34
2023-10-03T07:08:26.236Z,98506.91
2023-10-03T07:10:54.709Z,98504.81
2023-10-03T07:13:24.642Z,98501.48
2023-10-03T07:16:02.857Z,98498.20
2023-10-03T07:18:30.943Z,98500.36
2023-10-03T07:20:58.929Z,98501.06
2023-10-03T07:23:26.902Z,98503.53
2023-10-03T07:25:55.005Z,98502.96
2023-10-03T07:28:24.090Z,98500.04
2023-10-03T07:30:52.019Z,98499.86
2023-10-03T07:33:21.276Z,98501.42
2023-10-03T07:35:49.557Z,98504.17
2023-10-03T07:38:19.034Z,98500.73
2023-10-03T07:40:48.678Z,98500.28
2023-10-03T07:43:17.633Z,98501.48
2023-10-03T07:45:45.579Z,98499.86
2023-10-03T07:48:13.730Z,98498.59
2023-10-03T07:50:44.559Z,98498.55
2023-10-03T07:53:12.859Z,98498.50
2023-10-03T07:55:40.958Z,98496.30
2023-10-03T07:58:09.885Z,98497.50
2023-10-03T08:00:38.821Z,98498.75
2023-10-03T08:03:10.320Z,98496.75
2023-10-03T08:05:39.091Z,98494.48
2023-10-03T08:08:07.281Z,98493.21
2023-10-03T08:10:35.570Z,98491.17
2023-10-03T08:13:04.986Z,98498.26
2023-10-03T08:15:33.274Z,98492.61
2023-10-03T08:18:01.636Z,98491.85
2023-10-03T08:20:29.772Z,98489.40
2023-10-03T08:22:58.499Z,98482.21
2023-10-03T08:25:26.500Z,98483.11
2023-10-03T08:27:56.824Z,98481.14
2023-10-03T08:30:29.827Z,98480.08
2023-10-03T08:32:59.529Z,98477.06
2023-10-03T08:35:36.811Z,98472.02
2023-10-03T08:38:06.407Z,98468.14
2023-10-03T08:40:39.661Z,98464.48
2023-10-03T08:43:11.838Z,98457.50
2023-10-03T08:45:42.148Z,98457.77
2023-10-03T08:48:10.845Z,98456.42
2023-10-03T08:50:48.514Z,98449.94
2023-10-03T08:53:28.902Z,98448.13
2023-10-03T08:56:00.793Z,98443.55
2023-10-03T08:58:29.503Z,98437.61
2023-10-03T09:01:01.018Z,98435.80
2023-10-03T09:03:31.198Z,98430.96
2023-10-03T09:05:59.819Z,98437.45
2023-10-03T09:08:27.764Z,98437.63
2023-10-03T09:10:58.448Z,98438.13
2023-10-03T09:13:29.069Z,98432.71
2023-10-03T09:16:01.770Z,98426.90
2023-10-03T09:18:43.452Z,98422.70
2023-10-03T09:21:32.952Z,98424.65
2023-10-03T09:24:11.108Z,98418.95
2023-10-03T09:26:53.327Z,98417.04
2023-10-03T09:29:31.470Z,98416.77
2023-10-03T09:32:00.389Z,98416.05
2023-10-03T09:34:31.925Z,98417.27
2023-10-03T09:37:04.032Z,98414.67
2023-10-03T09:39:51.321Z,98417.40
2023-10-03T09:42:20.483Z,98417.67
2023-10-03T09:45:00.051Z,98418.63
2023-10-03T09:47:32.975Z,98415.25
2023-10-03T09:50:07.617Z,98415.55
2023-10-03T09:52:39.537Z,98412.34
2023-10-03T09:55:27.693Z,98409.77
2023-10-03T09:58:01.150Z,98402.14
2023-10-03T10:00:52.679Z,98397.32
2023-10-03T10:03:28.198Z,98390.00
2023-10-03T10:06:01.158Z,98390.66
2023-10-03T10:08:40.837Z,98390.56
2023-10-03T10:11:10.704Z,98388.08
2023-10-03T10:13:44.143Z,98380.52
2023-10-03T10:16:15.191Z,98377.23
2023-10-03T10:18:46.512Z,98372.51
2023-10-03T10:21:21.162Z,98372.49
2023-10-03T10:24:08.049Z,98373.03
2023-10-03T10:26:35.963Z,98369.77
2023-10-03T10:29:09.979Z,98366.15
2023-10-03T10:31:40.139Z,98365.48
2023-10-03T10:34:23.523Z,98360.96
2023-10-03T10:37:06.200Z,98357.33
2023-10-03T10:39:53.760Z,98351.05
2023-10-03T10:42:26.415Z,98346.73
2023-10-03T10:45:15.250Z,98342.84
2023-10-03T10:47:47.561Z,98340.58
2023-10-03T10:52:50.621Z,98334.20
2023-10-03T10:55:18.539Z,98329.05
2023-10-03T10:57:46.606Z,98325.89
2023-10-03T11:00:18.442Z,98322.92
2023-10-03T11:02:46.375Z,98318.17
2023-10-03T11:05:14.365Z,98319.61
2023-10-03T11:07:46.302Z,98315.91
2023-10-03T11:10:34.223Z,98314.10
2023-10-03T11:13:09.168Z,98314.55
2023-10-03T11:15:37.041Z,98309.88
2023-10-03T11:18:06.053Z,98309.05
2023-10-03T11:20:34.231Z,98308.16
2023-10-03T11:23:02.061Z,98306.48
2023-10-03T11:25:30.072Z,98303.64
2023-10-03T11:28:06.107Z,98300.94
2023-10-03T11:30:34.250Z,98296.32
2023-10-03T11:33:02.736Z,98294.70
2023-10-03T11:35:30.827Z,98291.77
2023-10-03T11:38:06.627Z,98286.34
2023-10-03T11:40:34.574Z,98285.15
2023-10-03T11:43:04.292Z,98285.83
2023-10-03T11:45:34.793Z,98280.48
2023-10-03T11:48:03.305Z,98273.85
2023-10-03T11:50:33.512Z,98269.47
2023-10-03T11:53:02.170Z,98266.88
2023-10-03T11:55:34.073Z,98264.13
2023-10-03T11:58:02.287Z,98257.55
2023-10-03T12:00:30.533Z,98255.63
2023-10-03T12:02:58.767Z,98252.76
2023-10-03T12:05:28.820Z,98250.15
2023-10-03T12:07:59.930Z,98253.52
2023-10-03T12:10:31.582Z,98250.00
2023-10-03T12:12:59.635Z,98248.50
2023-10-03T12:15:27.528Z,98247.95
2023-10-03T12:17:55.690Z,98244.27
2023-10-03T12:20:24.162Z,98239.61
2023-10-03T12:22:52.944Z,98235.91
2023-10-03T12:25:23.046Z,98235.69
2023-10-03T12:27:51.557Z,98234.06
2023-10-03T12:30:19.708Z,98230.63
2023-10-03T12:32:48.481Z,98228.55
2023-10-03T12:35:16.893Z,98223.74
2023-10-03T12:37:45.891Z,98220.15
2023-10-03T12:40:19.859Z,98218.27
2023-10-03T12:42:48.675Z,98214.15
2023-10-03T12:45:21.865Z,98209.86
2023-10-03T12:47:53.680Z,98211.03
2023-10-03T12:50:24.677Z,98212.98
2023-10-03T12:52:53.399Z,98211.99
2023-10-03T12:55:22.015Z,98208.96
2023-10-03T12:57:51.292Z,98207.06
2023-10-03T13:00:22.511Z,98205.73
2023-10-03T13:02:51.285Z,98204.42
2023-10-03T13:05:21.594Z,98206.08
2023-10-03T13:07:50.152Z,98207.38
2023-10-03T13:10:19.021Z,98206.64
2023-10-03T13:12:47.768Z,98206.82
2023-10-03T13:15:16.729Z,98206.23
2023-10-03T13:17:45.577Z,98203.45
2023-10-03T13:20:14.328Z,98200.70
2023-10-03T13:22:45.925Z,98198.83
2023-10-03T13:25:18.964Z,98194.79
2023-10-03T13:27:49.129Z,98191.74
2023-10-03T13:30:26.267Z,98190.20
2023-10-03T13:32:57.129Z,98182.77
2023-10-03T13:35:25.591Z,98180.85
2023-10-03T13:37:55.497Z,98182.11
2023-10-03T13:40:23.460Z,98182.20
2023-10-03T13:42:52.323Z,98176.19
2023-10-03T13:45:21.208Z,98174.29
2023-10-03T13:47:52.558Z,98170.02
2023-10-03T13:50:20.650Z,98167.82
2023-10-03T13:52:48.976Z,98166.71
2023-10-03T13:55:19.771Z,98165.62
2023-10-03T13:57:49.460Z,98162.73
2023-10-03T14:00:17.890Z,98161.66
2023-10-03T14:02:47.456Z,98162.42
2023-10-03T14:05:17.606Z,98165.75
2023-10-03T14:07:45.785Z,98162.63
2023-10-03T14:10:18.709Z,98164.63
2023-10-03T14:12:47.050Z,98166.54
2023-10-03T14:15:16.387Z,98164.99
2023-10-03T14:17:45.648Z,98166.59
2023-10-03T14:20:13.872Z,98162.85
2023-10-03T14:22:42.739Z,98162.84
2023-10-03T14:25:13.581Z,98159.97
2023-10-03T14:27:43.551Z,98156.18
2023-10-03T14:30:12.858Z,98158.66
2023-10-03T14:32:44.282Z,98158.67
2023-10-03T14:35:13.570Z,98157.83
2023-10-03T14:37:42.462Z,98155.88
2023-10-03T14:40:17.514Z,98156.58
2023-10-03T14:42:46.265Z,98157.64
2023-10-03T14:45:14.547Z,98152.27
2023-10-03T14:47:43.221Z,98149.92
2023-10-03T14:50:12.507Z,98146.78
2023-10-03T14:52:40.900Z,98147.21
2023-10-03T14:55:12.162Z,98147.14
2023-10-03T14:57:40.343Z,98143.71
2023-10-03T15:00:09.130Z,98143.56
2023-10-03T15:02:37.378Z,98140.16
2023-10-03T15:05:07.357Z,98139.05
2023-10-03T15:07:35.908Z,98138.41
2023-10-03T15:10:04.395Z,98137.84
2023-10-03T15:12:32.341Z,98134.86
2023-10-03T15:15:00.412Z,98134.98
2023-10-03T15:17:30.571Z,98136.04
2023-10-03T15:19:58.570Z,98133.80
2023-10-03T15:22:27.818Z,98135.86
2023-10-03T15:24:55.658Z,98137.92
2023-10-03T15:27:23.653Z,98135.43
2023-10-03T15:29:52.065Z,98131.36
2023-10-03T15:32:20.793Z,98129.24
2023-10-03T15:34:48.958Z,98132.79
2023-10-03T15:37:19.003Z,98132.52
2023-10-03T15:39:48.160Z,98135.48
2023-10-03T15:42:17.219Z,98134.45
2023-10-03T15:44:54.612Z,98136.59
2023-10-03T15:47:29.893Z,98140.23
2023-10-03T15:49:57.893Z,98138.45
2023-10-03T15:52:25.729Z,98137.77
2023-10-03T15:54:54.723Z,98138.05
2023-10-03T15:57:23.315Z,98136.59
2023-10-03T15:59:51.440Z,98138.73
2023-10-03T16:02:20.802Z,98137.51
2023-10-03T16:04:50.028Z,98137.23
2023-10-03T16:07:19.422Z,98133.61
2023-10-03T16:09:50.781Z,98137.64
2023-10-03T16:12:20.992Z,98139.02
2023-10-03T16:14:49.423Z,98142.80
2023-10-03T16:17:17.828Z,98141.27
2023-10-03T16:19:47.566Z,98141.62
2023-10-03T16:22:15.676Z,98144.81
2023-10-03T16:24:43.983Z,98146.71
2023-10-03T16:27:13.753Z,98146.23
2023-10-03T16:29:43.444Z,98139.88
2023-10-03T16:32:12.759Z,98142.64
2023-10-03T16:34:41.389Z,98142.52
2023-10-03T16:37:09.772Z,98142.67
2023-10-03T16:39:38.074Z,98142.07
2023-10-03T16:42:07.975Z,98144.45
2023-10-03T16:44:37.634Z,98143.69
2023-10-03T16:47:06.051Z,98147.52
2023-10-03T16:49:34.053Z,98151.69
2023-10-03T16:52:02.074Z,98147.85
2023-10-03T16:54:29.914Z,98146.94
2023-10-03T16:56:58.724Z,98146.80
2023-10-03T16:59:26.629Z,98149.92
2023-10-03T17:01:54.754Z,98152.10
2023-10-03T17:04:22.847Z,98151.84
2023-10-03T17:06:51.761Z,98149.95
2023-10-03T17:09:19.666Z,98149.45
2023-10-03T17:11:55.309Z,98149.52
2023-10-03T17:14:23.251Z,98150.46
2023-10-03T17:16:51.135Z,98154.48
2023-10-03T17:19:19.096Z,98152.88
2023-10-03T17:21:46.964Z,98155.34
2023-10-03T17:24:15.793Z,98153.89
2023-10-03T17:26:44.188Z,98151.17
2023-10-03T17:29:14.533Z,98151.65
2023-10-03T17:31:43.059Z,98148.30
2023-10-03T17:34:13.546Z,98149.65
2023-10-03T17:36:42.537Z,98152.11
2023-10-03T17:39:12.251Z,98152.43
2023-10-03T17:41:40.703Z,98153.12
2023-10-03T17:44:08.881Z,98156.72
2023-10-03T17:46:36.745Z,98157.45
2023-10-03T17:49:06.167Z,98157.75
2023-10-03T17:51:34.328Z,98159.50
2023-10-03T17:54:02.999Z,98157.04
2023-10-03T17:56:31.264Z,98159.83
2023-10-03T17:59:03.270Z,98162.61
2023-10-03T18:01:32.320Z,98166.75
2023-10-03T18:04:03.016Z,98167.90
2023-10-03T18:06:31.123Z,98167.92
2023-10-03T18:08:59.133Z,98168.34
2023-10-03T18:11:27.245Z,98168.11
2023-10-03T18:13:55.282Z,98166.59
2023-10-03T18:16:23.214Z,98167.52
2023-10-03T18:18:51.672Z,98168.52
2023-10-03T18:21:20.179Z,98165.88
2023-10-03T18:23:51.188Z,98166.48
2023-10-03T18:26:19.191Z,98170.61
2023-10-03T18:28:47.027Z,98172.94
2023-10-03T18:31:16.371Z,98173.40
2023-10-03T18:33:45.229Z,98171.77
2023-10-03T18:36:22.345Z,98168.00
2023-10-03T18:38:50.381Z,98165.87
2023-10-03T18:41:18.378Z,98168.80
2023-10-03T18:43:48.791Z,98163.01
2023-10-03T18:46:16.557Z,98166.73
2023-10-03T18:48:45.155Z,98165.06
2023-10-03T18:51:14.278Z,98163.25
2023-10-03T18:53:45.814Z,98160.86
2023-10-03T18:56:14.719Z,98160.94
2023-10-03T18:58:42.697Z,98156.85
2023-10-03T19:01:17.656Z,98156.67
2023-10-03T19:03:46.285Z,98157.20
2023-10-03T19:06:16.897Z,98162.83
2023-10-03T19:08:45.920Z,98162.32
2023-10-03T19:11:18.177Z,98158.48
2023-10-03T19:13:46.524Z,98160.50
2023-10-03T19:16:17.837Z,98159.22
2023-10-03T19:18:46.012Z,98162.77
2023-10-03T19:21:14.158Z,98158.83
2023-10-03T19:23:43.012Z,98156.71
2023-10-03T19:26:11.175Z,98151.71
2023-10-03T19:28:41.003Z,98144.66
2023-10-03T19:31:09.474Z,98146.16
2023-10-03T19:33:37.986Z,98141.91
2023-10-03T19:36:10.431Z,98139.79
2023-10-03T19:38:38.505Z,98138.57
2023-10-03T19:41:14.248Z,98137.03
2023-10-03T19:43:46.121Z,98135.97
2023-10-03T19:46:17.548Z,98133.55
2023-10-03T19:48:45.570Z,98135.55
2023-10-03T19:51:13.550Z,98132.77
2023-10-03T19:53:41.422Z,98129.73
2023-10-03T19:56:17.044Z,98129.13
2023-10-03T19:58:46.275Z,98128.98
2023-10-03T20:01:24.133Z,98125.54
2023-10-03T20:03:53.498Z,98122.03
2023-10-03T20:06:23.940Z,98123.06
2023-10-03T20:08:54.168Z,98123.05
2023-10-03T20:11:22.060Z,98126.38
2023-10-03T20:13:50.421Z,98126.90
2023-10-03T20:16:19.194Z,98128.66
2023-10-03T20:18:49.776Z,98126.24
2023-10-03T20:21:18.353Z,98127.96
2023-10-03T20:23:47.002Z,98131.38
2023-10-03T20:26:16.218Z,98131.17
2023-10-03T20:28:44.638Z,98128.73
2023-10-03T20:31:14.538Z,98126.02
2023-10-03T20:33:43.163Z,98127.24
2023-10-03T20:36:14.478Z,98126.65
2023-10-03T20:38:42.560Z,98127.21
2023-10-03T20:41:11.143Z,98127.91
2023-10-03T20:43:39.263Z,98125.21
2023-10-03T20:46:13.751Z,98128.27
2023-10-03T20:48:42.479Z,98134.17
2023-10-03T20:51:26.099Z,98134.42
2023-10-03T20:53:54.400Z,98135.84
2023-10-03T20:56:22.546Z,98131.15
2023-10-03T20:59:02.405Z,98130.69
2023-10-03T21:01:30.594Z,98128.89
2023-10-03T21:03:59.445Z,98127.33
2023-10-03T21:06:28.052Z,98125.56
2023-10-03T21:08:56.068Z,98122.34
2023-10-03T21:11:26.083Z,98120.63
2023-10-03T21:13:54.165Z,98120.73
2023-10-03T21:16:22.588Z,98117.55
2023-10-03T21:18:51.454Z,98116.42
2023-10-03T21:21:19.494Z,98121.42
2023-10-03T21:23:47.526Z,98125.11
2023-10-03T21:26:15.350Z,98125.23
2023-10-03T21:28:43.386Z,98126.92
2023-10-03T21:31:11.465Z,98128.70
2023-10-03T21:33:39.273Z,98129.27
2023-10-03T21:36:07.702Z,98127.77
2023-10-03T21:38:35.794Z,98128.27
2023-10-03T21:41:03.874Z,98129.70
2023-10-03T21:43:32.556Z,98127.75
2023-10-03T21:46:00.804Z,98127.02
2023-10-03T21:48:29.199Z,98128.96
2023-10-03T21:51:17.526Z,98128.30
2023-10-03T21:53:46.650Z,98126.71
2023-10-03T21:56:14.438Z,98128.09
2023-10-03T21:58:42.304Z,98126.45
2023-10-03T22:01:17.897Z,98127.11
2023-10-03T22:03:46.104Z,98124.77
2023-10-03T22:06:15.091Z,98122.40
2023-10-03T22:08:43.137Z,98121.84
2023-10-03T22:11:11.311Z,98122.52
2023-10-03T22:13:39.169Z,98118.55
2023-10-03T22:16:07.135Z,98120.02
2023-10-03T22:18:36.713Z,98117.50
2023-10-03T22:21:05.206Z,98116.22
2023-10-03T22:23:33.116Z,98112.02
2023-10-03T22:26:01.280Z,98110.55
2023-10-03T22:28:29.107Z,98113.13
2023-10-03T22:30:57.161Z,98118.17
2023-10-03T22:33:25.044Z,98120.45
2023-10-03T22:35:53.166Z,98122.41
2023-10-03T22:38:20.989Z,98123.70
2023-10-03T22:40:49.206Z,98123.68
2023-10-03T22:43:18.054Z,98124.75
2023-10-03T22:45:46.090Z,98129.15
2023-10-03T22:48:14.321Z,98126.69
2023-10-03T22:50:42.336Z,98131.48
2023-10-03T22:53:11.430Z,98132.77
2023-10-03T22:55:40.117Z,98127.52
2023-10-03T22:58:08.320Z,98125.38
2023-10-03T23:00:36.405Z,98124.75
2023-10-03T23:03:04.802Z,98119.68
2023-10-03T23:05:32.836Z,98119.67
2023-10-03T23:08:00.640Z,98124.08
2023-10-03T23:10:28.679Z,98120.77
2023-10-03T23:12:56.733Z,98118.95
2023-10-03T23:15:24.926Z,98121.94
2023-10-03T23:17:52.870Z,98127.85
2023-10-03T23:20:21.513Z,98124.77
2023-10-03T23:22:51.162Z,98127.64
2023-10-03T23:25:19.512Z,98132.98
2023-10-03T23:27:48.990Z,98137.77
2023-10-03T23:30:17.279Z,98138.14
2023-10-03T23:32:45.974Z,98136.88
2023-10-03T23:35:14.156Z,98135.23
2023-10-03T23:37:42.295Z,98137.73
2023-10-03T23:40:15.068Z,98140.20
2023-10-03T23:42:45.419Z,98141.64
2023-10-03T23:45:15.491Z,98139.31
2023-10-03T23:47:43.775Z,98138.95
2023-10-03T23:50:12.690Z,98137.02
2023-10-03T23:52:41.413Z,98132.64
2023-10-03T23:55:14.082Z,98130.21
2023-10-03T23:57:46.650Z,98129.21
